Time;durP1;ratioP1;P1;durP2;ratioP2;P2;SDS_P1;SDS_P2;PMS_P1;PMS_P2;Temp;Humidity;BMP_temperature;BMP_pressure;BME280_temperature;BME280_humidity;BME280_pressure;Samples;Min_cycle;Max_cycle;Signal;HPM_P1;HPM_P2
2021/01/16 00:00:58;;;;;;;0.10;0.10;;;;;;;-10.64;83.18;100349.98;1744189;81;21142;-48
2021/01/16 00:03:25;;;;;;;0.35;0.35;;;;;;;-10.64;83.21;100354.77;1818749;78;21098;-48
2021/01/16 00:05:54;;;;;;;0.05;0.05;;;;;;;-10.64;83.27;100351.30;1814099;78;21137;-48
2021/01/16 00:08:23;;;;;;;0.10;0.10;;;;;;;-10.62;83.34;100355.96;1786630;78;21161;-49
2021/01/16 00:10:52;;;;;;;0.10;0.10;;;;;;;-10.62;83.37;100359.42;1786591;80;21106;-49
2021/01/16 00:13:25;;;;;;;0.10;0.10;;;;;;;-10.59;83.44;100360.95;1786630;78;21102;-48
2021/01/16 00:15:53;;;;;;;0.20;0.20;;;;;;;-10.60;83.43;100360.61;1753391;81;21154;-48
2021/01/16 00:18:22;;;;;;;0.10;0.10;;;;;;;-10.59;83.47;100353.02;1753426;81;21174;-48
2021/01/16 00:20:53;;;;;;;0.10;0.10;;;;;;;-10.59;83.46;100354.84;1753596;81;21151;-48
2021/01/16 00:23:25;;;;;;;0.42;0.42;;;;;;;-10.62;83.46;100354.64;1753645;81;21139;-48
2021/01/16 00:25:53;;;;;;;0.10;0.10;;;;;;;-10.60;83.51;100354.01;1736378;81;21207;-49
2021/01/16 00:28:22;;;;;;;0.10;0.10;;;;;;;-10.60;83.53;100351.37;1747917;81;21168;-49
2021/01/16 00:30:50;;;;;;;0.10;0.10;;;;;;;-10.60;83.53;100344.77;1757717;81;21106;-49
2021/01/16 00:33:20;;;;;;;0.10;0.10;;;;;;;-10.62;83.58;100348.86;1760153;81;21561;-49
2021/01/16 00:35:48;;;;;;;0.10;0.10;;;;;;;-10.61;83.60;100341.77;1760102;81;21145;-49
2021/01/16 00:38:16;;;;;;;0.10;0.10;;;;;;;-10.61;83.67;100348.36;1760128;81;21142;-49
2021/01/16 00:40:44;;;;;;;0.10;0.10;;;;;;;-10.61;83.71;100351.01;1760189;81;21150;-49
2021/01/16 00:43:14;;;;;;;0.10;0.10;;;;;;;-10.59;83.72;100341.14;1751785;81;21170;-48
2021/01/16 00:45:45;;;;;;;0.10;0.10;;;;;;;-10.60;83.71;100339.48;1750722;81;21146;-49
2021/01/16 00:48:18;;;;;;;0.20;0.20;;;;;;;-10.62;83.74;100336.98;1724299;83;21470;-49
2021/01/16 00:50:47;;;;;;;0.10;0.10;;;;;;;-10.62;83.80;100336.16;1750775;81;21162;-49
2021/01/16 00:53:15;;;;;;;0.23;0.23;;;;;;;-10.63;83.88;100339.75;1724203;83;21146;-49
2021/01/16 00:55:53;;;;;;;0.10;0.10;;;;;;;-10.57;83.92;100327.80;1851782;76;22708;-46
2021/01/16 00:58:22;;;;;;;0.53;0.53;;;;;;;-10.63;83.94;100329.19;1821124;78;21091;-48
2021/01/16 01:00:51;;;;;;;0.00;0.00;;;;;;;-10.63;84.00;100317.30;1819501;78;21094;-48
2021/01/16 01:03:21;;;;;;;0.10;0.10;;;;;;;-10.63;84.09;100313.34;1789157;78;21137;-48
2021/01/16 01:05:50;;;;;;;0.20;0.20;;;;;;;-10.62;84.14;100308.42;1788813;78;21665;-48
2021/01/16 01:08:26;;;;;;;0.45;0.45;;;;;;;-10.59;84.17;100309.94;1788598;80;21134;-48
2021/01/16 01:10:54;;;;;;;0.00;0.00;;;;;;;-10.59;84.20;100308.13;1788771;80;21545;-49
2021/01/16 01:13:21;;;;;;;0.10;0.10;;;;;;;-10.58;84.23;100309.81;1788664;80;21623;-49
2021/01/16 01:15:49;;;;;;;0.42;0.42;;;;;;;-10.56;84.27;100313.60;1788521;80;21589;-48
2021/01/16 01:18:16;;;;;;;0.10;0.10;;;;;;;-10.55;84.30;100316.11;1756477;81;21605;-48
2021/01/16 01:20:44;;;;;;;0.10;0.10;;;;;;;-10.54;84.36;100315.61;1752135;81;21115;-48
2021/01/16 01:23:11;;;;;;;0.30;0.30;;;;;;;-10.53;84.38;100308.88;1761577;81;21483;-48
2021/01/16 01:25:38;;;;;;;0.10;0.10;;;;;;;-10.52;84.44;100310.52;1761446;81;21151;-49
2021/01/16 01:28:06;;;;;;;0.10;0.10;;;;;;;-10.51;84.50;100318.78;1752185;81;21174;-49
2021/01/16 01:30:34;;;;;;;0.10;0.10;;;;;;;-10.47;84.53;100319.34;1783315;80;21123;-48
2021/01/16 01:33:01;;;;;;;0.10;0.10;;;;;;;-10.46;84.54;100317.88;1752514;81;21127;-48
2021/01/16 01:35:28;;;;;;;0.10;0.10;;;;;;;-10.45;84.53;100325.31;1752157;81;21142;-49
2021/01/16 01:37:56;;;;;;;0.10;0.10;;;;;;;-10.45;84.52;100322.17;1752365;81;21018;-48
2021/01/16 01:40:26;;;;;;;0.10;0.10;;;;;;;-10.43;84.54;100313.62;1725775;81;21521;-49
2021/01/16 01:42:55;;;;;;;0.00;0.00;;;;;;;-10.42;84.52;100315.27;1733007;82;21455;-48
2021/01/16 01:45:24;;;;;;;0.10;0.10;;;;;;;-10.42;84.49;100315.27;1732946;82;21148;-49
2021/01/16 01:47:51;;;;;;;0.08;0.08;;;;;;;-10.41;84.44;100312.98;1732989;82;21112;-49
2021/01/16 01:50:19;;;;;;;0.00;0.00;;;;;;;-10.39;84.37;100309.69;1732754;82;21118;-49
2021/01/16 01:52:49;;;;;;;0.57;0.57;;;;;;;-10.38;84.33;100314.50;1732903;82;21506;-48
2021/01/16 01:55:16;;;;;;;0.10;0.10;;;;;;;-10.36;84.28;100317.80;1736029;81;21132;-48
2021/01/16 01:57:50;;;;;;;0.10;0.10;;;;;;;-10.35;84.20;100310.73;1738452;82;21120;-49
2021/01/16 02:00:18;;;;;;;0.00;0.00;;;;;;;-10.34;84.15;100308.42;1738325;82;21528;-48
2021/01/16 02:02:46;;;;;;;0.10;0.10;;;;;;;-10.32;84.11;100313.08;1738341;82;21152;-49
2021/01/16 02:05:13;;;;;;;0.10;0.10;;;;;;;-10.31;84.08;100314.72;1738315;82;21176;-49
2021/01/16 02:07:44;;;;;;;0.10;0.10;;;;;;;-10.31;84.06;100312.94;1737584;82;21148;-48
2021/01/16 02:10:22;;;;;;;0.10;0.10;;;;;;;-10.29;84.01;100310.12;1737941;82;21128;-48
2021/01/16 02:12:54;;;;;;;0.10;0.10;;;;;;;-10.29;83.98;100307.48;1738058;82;21152;-48
2021/01/16 02:15:51;;;;;;;0.10;0.10;;;;;;;-10.30;83.91;100313.27;1738020;82;21429;-48
2021/01/16 02:18:37;;;;;;;0.10;0.10;;;;;;;-10.30;83.91;100311.12;1737441;82;21177;-48
2021/01/16 02:21:06;;;;;;;0.10;0.10;;;;;;;-10.32;83.88;100313.08;1763394;81;21181;-48
2021/01/16 02:23:40;;;;;;;0.10;0.10;;;;;;;-10.35;83.84;100308.09;1768458;81;21102;-49
2021/01/16 02:26:19;;;;;;;0.10;0.10;;;;;;;-10.37;83.81;100310.87;1768469;81;21141;-48
2021/01/16 02:29:05;;;;;;;0.00;0.00;;;;;;;-10.39;83.75;100302.25;1768124;81;21173;-48
2021/01/16 02:31:49;;;;;;;0.10;0.10;;;;;;;-10.42;83.68;100314.45;1768376;81;21572;-48
2021/01/16 02:34:19;;;;;;;0.10;0.10;;;;;;;-10.48;83.65;100313.23;1768207;81;21288;-48
2021/01/16 02:36:55;;;;;;;0.10;0.10;;;;;;;-10.52;83.65;100315.81;1768535;81;21114;-49
2021/01/16 02:39:28;;;;;;;0.10;0.10;;;;;;;-10.55;83.67;100317.43;1768350;81;21125;-49
2021/01/16 02:42:00;;;;;;;0.10;0.10;;;;;;;-10.60;83.70;100322.32;1738581;81;21134;-48
2021/01/16 02:44:48;;;;;;;0.25;0.25;;;;;;;-10.64;83.70;100327.54;1768625;81;21130;-48
2021/01/16 02:47:45;;;;;;;0.05;0.05;;;;;;;-10.66;83.74;100337.41;1768448;81;21114;-49
2021/01/16 02:50:13;;;;;;;0.30;0.30;;;;;;;-10.69;83.76;100335.06;1737890;82;21121;-48
2021/01/16 02:52:44;;;;;;;0.10;0.10;;;;;;;-10.69;83.79;100326.65;1685940;82;21437;-48
2021/01/16 02:55:11;;;;;;;0.10;0.10;;;;;;;-10.68;83.81;100324.83;1748735;81;21170;-48
2021/01/16 02:57:39;;;;;;;0.08;0.08;;;;;;;-10.69;83.80;100325.33;1761944;81;21530;-48
2021/01/16 03:00:17;;;;;;;0.10;0.10;;;;;;;-10.68;83.79;100324.83;1761884;81;21166;-48
2021/01/16 03:02:44;;;;;;;0.10;0.10;;;;;;;-10.70;83.75;100325.00;1761924;81;21130;-48
2021/01/16 03:05:12;;;;;;;0.15;0.15;;;;;;;-10.72;83.75;100322.98;1761804;81;21159;-48
2021/01/16 03:07:40;;;;;;;0.30;0.30;;;;;;;-10.73;83.81;100313.88;1761855;81;21157;-48
2021/01/16 03:10:09;;;;;;;0.10;0.10;;;;;;;-10.75;83.86;100314.53;1736672;81;21154;-48
2021/01/16 03:12:37;;;;;;;0.10;0.10;;;;;;;-10.77;83.87;100317.31;1761824;81;21131;-49
2021/01/16 03:15:14;;;;;;;0.10;0.10;;;;;;;-10.77;83.94;100319.95;1761808;81;21154;-48
2021/01/16 03:17:57;;;;;;;0.10;0.10;;;;;;;-10.75;84.01;100320.64;1761975;81;21138;-48
2021/01/16 03:20:28;;;;;;;0.50;0.50;;;;;;;-10.72;84.06;100324.80;1779304;80;21123;-48
2021/01/16 03:22:57;;;;;;;0.10;0.10;;;;;;;-10.71;84.09;100317.21;1788647;80;21185;-48
2021/01/16 03:25:27;;;;;;;0.30;0.30;;;;;;;-10.68;84.08;100324.83;1761814;81;21170;-48
2021/01/16 03:27:55;;;;;;;0.30;0.30;;;;;;;-10.68;84.10;100322.19;1797146;78;21154;-49
2021/01/16 03:30:23;;;;;;;0.10;0.10;;;;;;;-10.68;84.17;100320.88;1761846;81;21130;-48
2021/01/16 03:32:51;;;;;;;0.30;0.30;;;;;;;-10.65;84.22;100324.07;1793186;80;21174;-48
2021/01/16 03:35:21;;;;;;;0.15;0.15;;;;;;;-10.62;84.22;100318.98;1758520;81;21124;-48
2021/01/16 03:37:50;;;;;;;0.10;0.10;;;;;;;-10.60;84.25;100318.36;1758775;81;21456;-48
2021/01/16 03:40:17;;;;;;;0.10;0.10;;;;;;;-10.59;84.25;100321.33;1758650;81;21147;-48
2021/01/16 03:42:45;;;;;;;0.10;0.10;;;;;;;-10.57;84.29;100319.88;1758441;81;21166;-49
2021/01/16 03:45:16;;;;;;;0.10;0.10;;;;;;;-10.55;84.34;100318.75;1758303;81;21147;-49
2021/01/16 03:47:44;;;;;;;0.10;0.10;;;;;;;-10.51;84.35;100320.59;1758888;81;21447;-49
2021/01/16 03:50:11;;;;;;;0.00;0.00;;;;;;;-10.50;84.37;100312.53;1758511;81;21530;-48
2021/01/16 03:52:39;;;;;;;0.10;0.10;;;;;;;-10.46;84.33;100315.23;1758729;81;21123;-48
2021/01/16 03:55:09;;;;;;;1.12;1.00;;;;;;;-10.45;84.32;100327.45;1755483;81;21119;-49
2021/01/16 03:57:36;;;;;;;0.10;0.10;;;;;;;-10.43;84.33;100323.36;1733394;82;21184;-49
2021/01/16 04:00:08;;;;;;;0.68;0.68;;;;;;;-10.43;84.34;100330.79;1748085;82;21172;-48
2021/01/16 04:02:36;;;;;;;0.10;0.10;;;;;;;-10.43;84.36;100330.79;1748339;81;21740;-48
2021/01/16 04:05:04;;;;;;;1.55;1.10;;;;;;;-10.40;84.42;100325.70;1748157;81;21360;-48
2021/01/16 04:07:31;;;;;;;0.23;0.23;;;;;;;-10.39;84.42;100329.50;1748278;82;21131;-49
2021/01/16 04:10:00;;;;;;;0.10;0.10;;;;;;;-10.37;84.44;100328.54;1748206;82;21123;-48
2021/01/16 04:12:28;;;;;;;0.20;0.20;;;;;;;-10.35;84.49;100331.87;1748283;82;21108;-48
2021/01/16 04:14:56;;;;;;;0.10;0.10;;;;;;;-10.32;84.52;100328.92;1748152;82;21176;-48
2021/01/16 04:17:23;;;;;;;0.65;0.47;;;;;;;-10.31;84.53;100334.08;1748138;82;21120;-48
2021/01/16 04:19:51;;;;;;;0.10;0.10;;;;;;;-10.27;84.56;100338.53;1732177;81;21315;-49
2021/01/16 04:22:20;;;;;;;0.00;0.00;;;;;;;-10.23;84.63;100338.59;1718428;83;21566;-48
2021/01/16 04:24:47;;;;;;;1.87;1.75;;;;;;;-10.18;84.67;100331.87;1717983;83;21661;-48
2021/01/16 04:27:14;;;;;;;1.02;0.80;;;;;;;-10.12;84.71;100331.76;1718240;83;21132;-48
2021/01/16 04:29:41;;;;;;;0.10;0.10;;;;;;;-10.07;84.71;100330.82;1718287;83;21112;-48
2021/01/16 04:32:09;;;;;;;0.10;0.10;;;;;;;-10.02;84.73;100325.92;1718362;82;21127;-48
2021/01/16 04:34:36;;;;;;;0.10;0.10;;;;;;;-10.00;84.71;100323.96;1718236;83;21127;-48
2021/01/16 04:37:04;;;;;;;0.10;0.10;;;;;;;-9.97;84.73;100326.30;1718234;82;21154;-49
2021/01/16 04:39:31;;;;;;;0.00;0.00;;;;;;;-9.92;84.72;100332.96;1718370;83;21119;-48
2021/01/16 04:41:58;;;;;;;0.10;0.10;;;;;;;-9.91;84.75;100330.18;1718348;83;21474;-48
2021/01/16 04:44:25;;;;;;;0.10;0.10;;;;;;;-9.88;84.74;100321.12;1718407;83;21140;-48
2021/01/16 04:46:53;;;;;;;0.10;0.10;;;;;;;-9.85;84.76;100324.28;1718466;82;21131;-48
2021/01/16 04:49:20;;;;;;;0.10;0.10;;;;;;;-9.83;84.77;100322.31;1703781;83;21148;-49
2021/01/16 04:51:48;;;;;;;0.53;0.53;;;;;;;-9.81;84.72;100322.18;1732041;82;21144;-49
2021/01/16 04:54:16;;;;;;;0.00;0.00;;;;;;;-9.80;84.75;100326.47;1751622;81;21387;-48
2021/01/16 04:56:45;;;;;;;0.10;0.10;;;;;;;-9.78;84.72;100323.20;1749804;81;21171;-49
2021/01/16 04:59:13;;;;;;;1.35;1.07;;;;;;;-9.76;84.76;100323.88;1732481;82;21211;-49
2021/01/16 05:01:41;;;;;;;0.08;0.08;;;;;;;-9.74;84.78;100330.68;1751221;81;21139;-48
2021/01/16 05:04:08;;;;;;;0.37;0.37;;;;;;;-9.73;84.76;100327.54;1751297;81;21131;-48
2021/01/16 05:06:39;;;;;;;0.33;0.25;;;;;;;-9.70;84.80;100335.16;1751370;81;21461;-49
2021/01/16 05:09:06;;;;;;;0.45;0.45;;;;;;;-9.67;84.83;100340.14;1751271;81;21273;-48
2021/01/16 05:11:46;;;;;;;0.00;0.00;;;;;;;-9.65;84.84;100340.83;1751265;81;21162;-48
2021/01/16 05:14:17;;;;;;;0.82;0.82;;;;;;;-9.63;84.83;100339.37;1750984;81;21474;-48
2021/01/16 05:16:57;;;;;;;0.10;0.10;;;;;;;-9.62;84.85;100345.81;1751380;81;21453;-48
2021/01/16 05:19:31;;;;;;;0.10;0.10;;;;;;;-9.60;84.89;100338.56;1751393;81;21099;-48
2021/01/16 05:21:59;;;;;;;0.10;0.10;;;;;;;-9.59;84.91;100341.56;1751533;80;21104;-48
2021/01/16 05:24:27;;;;;;;0.33;0.33;;;;;;;-9.58;84.91;100336.59;1751417;81;21135;-48
2021/01/16 05:27:04;;;;;;;0.28;0.28;;;;;;;-9.55;84.95;100344.23;1751203;81;21179;-48
2021/01/16 05:29:33;;;;;;;0.10;0.10;;;;;;;-9.53;85.00;100343.59;1751404;81;21609;-48
2021/01/16 05:32:04;;;;;;;0.10;0.10;;;;;;;-9.50;85.01;100347.74;1751200;81;21103;-49
2021/01/16 05:34:33;;;;;;;0.13;0.13;;;;;;;-9.48;85.03;100346.28;1751316;81;21633;-48
2021/01/16 05:37:01;;;;;;;0.10;0.10;;;;;;;-9.46;85.04;100355.73;1751364;81;21507;-49
2021/01/16 05:39:33;;;;;;;0.10;0.10;;;;;;;-9.45;85.00;100359.20;1751333;81;21147;-49
2021/01/16 05:42:04;;;;;;;0.10;0.10;;;;;;;-9.46;85.02;100362.84;1751479;81;21127;-49
2021/01/16 05:44:35;;;;;;;0.10;0.10;;;;;;;-9.47;85.05;100363.30;1751477;81;21119;-48
2021/01/16 05:47:03;;;;;;;0.10;0.10;;;;;;;-9.47;85.07;100366.45;1751403;81;21108;-49
2021/01/16 05:49:30;;;;;;;0.10;0.10;;;;;;;-9.49;85.14;100356.50;1725943;81;21135;-49
2021/01/16 05:51:58;;;;;;;2.90;0.50;;;;;;;-9.48;85.24;100362.16;1711950;81;22044;-49
2021/01/16 05:54:28;;;;;;;0.17;0.17;;;;;;;-9.46;85.35;100363.66;1751481;81;21107;-49
2021/01/16 05:56:55;;;;;;;6.15;0.70;;;;;;;-9.44;85.39;100367.49;1736642;81;21189;-48
2021/01/16 05:59:22;;;;;;;0.10;0.10;;;;;;;-9.47;85.47;100376.53;1732178;82;21603;-48
2021/01/16 06:01:53;;;;;;;0.10;0.10;;;;;;;-9.49;85.53;100378.99;1688307;82;21158;-49
2021/01/16 06:04:20;;;;;;;0.20;0.20;;;;;;;-9.54;85.54;100381.62;1688284;82;21578;-49
2021/01/16 06:06:48;;;;;;;0.10;0.10;;;;;;;-9.65;84.84;100383.15;1732279;81;21136;-48
2021/01/16 06:09:19;;;;;;;0.10;0.10;;;;;;;-9.83;83.83;100383.14;1732165;82;21143;-48
2021/01/16 06:11:48;;;;;;;0.20;0.20;;;;;;;-10.04;83.62;100391.81;1732278;82;21430;-48
2021/01/16 06:14:15;;;;;;;1.15;1.12;;;;;;;-10.23;83.70;100390.94;1732267;81;21134;-49
2021/01/16 06:16:54;;;;;;;0.10;0.10;;;;;;;-10.35;83.81;100412.45;1732053;82;21134;-49
2021/01/16 06:19:25;;;;;;;0.17;0.17;;;;;;;-10.46;83.86;100406.37;1736122;81;21597;-48
2021/01/16 06:21:53;;;;;;;0.10;0.10;;;;;;;-10.54;83.93;100414.66;1754591;81;21123;-49
2021/01/16 06:24:22;;;;;;;0.05;0.05;;;;;;;-10.60;83.96;100424.00;1749030;81;21119;-48
2021/01/16 06:26:59;;;;;;;0.60;0.47;;;;;;;-10.67;83.77;100429.01;1749962;81;21130;-48
2021/01/16 06:29:34;;;;;;;0.10;0.10;;;;;;;-10.75;83.90;100432.03;1751736;81;21111;-48
2021/01/16 06:32:08;;;;;;;0.10;0.10;;;;;;;-10.79;83.74;100438.06;1768234;81;21513;-48
2021/01/16 06:34:39;;;;;;;0.10;0.10;;;;;;;-10.86;83.93;100436.95;1768533;80;21103;-48
2021/01/16 06:37:11;;;;;;;0.10;0.10;;;;;;;-10.92;83.98;100438.36;1768498;81;21132;-48
2021/01/16 06:39:43;;;;;;;0.42;0.30;;;;;;;-10.96;83.61;100442.25;1738076;82;21451;-48
2021/01/16 06:42:21;;;;;;;0.10;0.10;;;;;;;-11.02;83.33;100445.47;1737828;82;21170;-48
2021/01/16 06:44:48;;;;;;;0.10;0.10;;;;;;;-11.08;82.84;100459.20;1719803;82;21139;-48
2021/01/16 06:47:16;;;;;;;0.10;0.10;;;;;;;-11.13;82.88;100464.06;1731846;82;21529;-48
2021/01/16 06:49:44;;;;;;;0.10;0.10;;;;;;;-11.18;82.89;100463.65;1732034;82;21118;-49
2021/01/16 06:52:11;;;;;;;0.10;0.10;;;;;;;-11.19;82.76;100463.31;1711289;82;21135;-49
2021/01/16 06:54:38;;;;;;;0.23;0.23;;;;;;;-11.21;83.03;100458.16;1731931;82;21139;-48
2021/01/16 06:57:09;;;;;;;0.10;0.10;;;;;;;-11.21;82.86;100452.89;1745406;81;21131;-48
2021/01/16 06:59:41;;;;;;;0.17;0.17;;;;;;;-11.23;82.91;100457.46;1751497;81;21420;-48
2021/01/16 07:02:27;;;;;;;0.40;0.40;;;;;;;-11.26;82.80;100458.58;1761937;80;21115;-48
2021/01/16 07:05:20;;;;;;;0.10;0.10;;;;;;;-11.29;82.78;100453.58;1781541;80;21171;-48
2021/01/16 07:07:51;;;;;;;0.10;0.10;;;;;;;-11.29;82.63;100455.39;1767008;80;21158;-49
2021/01/16 07:10:22;;;;;;;2.60;1.72;;;;;;;-11.30;82.46;100457.20;1739088;82;21497;-49
2021/01/16 07:12:51;;;;;;;0.10;0.10;;;;;;;-11.28;82.66;100467.11;1766607;80;21154;-48
2021/01/16 07:15:21;;;;;;;0.10;0.10;;;;;;;-11.23;82.78;100479.06;1760145;81;20996;-48
2021/01/16 07:17:49;;;;;;;0.10;0.10;;;;;;;-11.16;82.97;100486.28;1751021;80;21162;-47
2021/01/16 07:20:17;;;;;;;0.33;0.33;;;;;;;-11.09;82.91;100481.30;1751276;81;21149;-48
2021/01/16 07:22:44;;;;;;;0.10;0.10;;;;;;;-10.99;82.98;100483.94;1751877;80;21158;-48
2021/01/16 07:25:14;;;;;;;0.10;0.10;;;;;;;-10.94;82.59;100489.62;1780786;80;21465;-48
2021/01/16 07:27:42;;;;;;;0.10;0.10;;;;;;;-10.91;82.61;100488.03;1738050;81;21135;-48
2021/01/16 07:30:14;;;;;;;0.10;0.10;;;;;;;-10.85;82.62;100484.34;1781955;80;21134;-48
2021/01/16 07:32:44;;;;;;;0.20;0.20;;;;;;;-10.81;81.75;100484.89;1760811;81;21123;-48
2021/01/16 07:35:23;;;;;;;0.10;0.10;;;;;;;-10.82;81.66;100493.80;1782162;80;21461;-48
2021/01/16 07:37:53;;;;;;;0.10;0.10;;;;;;;-10.80;81.91;100504.20;1750957;81;21142;-48
2021/01/16 07:40:24;;;;;;;0.10;0.10;;;;;;;-10.70;82.22;100509.84;1735010;81;21103;-48
2021/01/16 07:42:56;;;;;;;0.15;0.10;;;;;;;-10.60;81.82;100505.88;1763981;80;21174;-48
2021/01/16 07:45:34;;;;;;;0.10;0.10;;;;;;;-10.55;81.20;100507.59;1762133;80;21222;-48
2021/01/16 07:48:07;;;;;;;0.10;0.10;;;;;;;-10.57;80.83;100516.14;1762031;80;21395;-48
2021/01/16 07:50:37;;;;;;;0.13;0.13;;;;;;;-10.59;80.94;100516.77;1761934;80;21659;-48
2021/01/16 07:53:09;;;;;;;0.10;0.10;;;;;;;-10.55;80.90;100512.88;1750257;81;21395;-48
2021/01/16 07:55:42;;;;;;;0.10;0.10;;;;;;;-10.54;80.42;100530.38;1760459;81;21569;-48
2021/01/16 07:58:26;;;;;;;0.10;0.10;;;;;;;-10.49;80.91;100525.51;1744478;81;21151;-48
2021/01/16 08:01:11;;;;;;;0.20;0.20;;;;;;;-10.37;80.30;100524.05;1774410;80;21131;-48
2021/01/16 08:04:20;;;;;;;0.10;0.10;;;;;;;-10.35;79.64;100526.89;1762481;80;21117;-48
2021/01/16 08:07:09;;;;;;;0.17;0.17;;;;;;;-10.39;79.54;100526.32;1772494;80;21138;-48
2021/01/16 08:09:57;;;;;;;0.10;0.10;;;;;;;-10.43;79.29;100532.88;1750956;81;21135;-47
2021/01/16 08:12:26;;;;;;;0.30;0.30;;;;;;;-10.41;79.74;100529.62;1751020;81;21138;-48
2021/01/16 08:14:54;;;;;;;0.13;0.13;;;;;;;-10.31;79.98;100532.70;1752710;80;21154;-47
2021/01/16 08:17:35;;;;;;;0.62;0.17;;;;;;;-10.22;79.93;100538.44;1747601;81;21466;-48
2021/01/16 08:20:19;;;;;;;0.28;0.28;;;;;;;-10.12;79.83;100545.85;1723290;81;21184;-48
2021/01/16 08:22:51;;;;;;;0.40;0.40;;;;;;;-10.02;79.68;100546.66;1728428;81;21126;-48
2021/01/16 08:25:26;;;;;;;0.10;0.10;;;;;;;-9.91;79.33;100552.27;1726442;81;21159;-48
2021/01/16 08:27:58;;;;;;;0.03;0.03;;;;;;;-9.82;78.95;100543.95;1723965;81;21123;-48
2021/01/16 08:30:28;;;;;;;0.00;0.00;;;;;;;-9.72;78.65;100543.41;1730036;81;21104;-48
2021/01/16 08:33:07;;;;;;;0.30;0.30;;;;;;;-9.61;78.48;100554.31;1762286;80;21140;-47
2021/01/16 08:35:43;;;;;;;0.10;0.10;;;;;;;-9.56;77.91;100559.50;1767067;80;21135;-47
2021/01/16 08:38:20;;;;;;;0.10;0.10;;;;;;;-9.47;77.94;100564.89;1765467;80;21193;-48
2021/01/16 08:41:06;;;;;;;0.10;0.10;;;;;;;-9.38;77.79;100553.43;1725955;83;21189;-48
2021/01/16 08:43:43;;;;;;;0.28;0.20;;;;;;;-9.31;77.00;100539.45;1726106;83;21163;-47
2021/01/16 08:46:16;;;;;;;0.10;0.10;;;;;;;-9.29;77.21;100549.91;1730527;81;21204;-48
2021/01/16 08:49:10;;;;;;;1.80;1.65;;;;;;;-9.26;77.10;100553.57;1744234;81;21156;-48
2021/01/16 08:51:46;;;;;;;0.10;0.10;;;;;;;-9.17;76.83;100550.05;1760876;81;21524;-48
2021/01/16 08:54:20;;;;;;;0.10;0.10;;;;;;;-9.14;76.37;100552.88;1759960;81;21119;-48
2021/01/16 08:56:49;;;;;;;0.10;0.10;;;;;;;-9.15;76.62;100549.41;1760238;81;21847;-48
2021/01/16 08:59:29;;;;;;;0.10;0.10;;;;;;;-9.06;76.60;100556.10;1762098;81;21561;-48
2021/01/16 09:02:07;;;;;;;0.10;0.10;;;;;;;-8.99;76.53;100555.85;1743096;81;21147;-48
2021/01/16 09:04:37;;;;;;;0.10;0.10;;;;;;;-8.88;76.03;100555.61;1766134;81;21111;-48
2021/01/16 09:07:22;;;;;;;0.10;0.10;;;;;;;-8.83;75.31;100549.88;1768484;80;21130;-48
2021/01/16 09:09:59;;;;;;;0.13;0.13;;;;;;;-8.77;74.88;100551.43;1740614;81;21162;-48
2021/01/16 09:12:36;;;;;;;0.60;0.60;;;;;;;-8.70;74.61;100551.17;1741089;82;21430;-48
2021/01/16 09:15:26;;;;;;;0.10;0.10;;;;;;;-8.59;74.31;100549.27;1759408;81;21126;-48
2021/01/16 09:18:15;;;;;;;0.20;0.20;;;;;;;-8.52;73.70;100542.37;1738277;81;21257;-48
2021/01/16 09:20:55;;;;;;;0.10;0.10;;;;;;;-8.57;73.43;100534.05;1741257;82;21134;-49
2021/01/16 09:23:27;;;;;;;0.10;0.10;;;;;;;-8.61;73.07;100536.66;1755208;81;21525;-48
2021/01/16 09:26:16;;;;;;;0.10;0.10;;;;;;;-8.71;72.04;100546.84;1769784;80;21119;-48
2021/01/16 09:29:00;;;;;;;0.00;0.00;;;;;;;-8.91;71.51;100551.45;1741637;81;21166;-48
2021/01/16 09:31:34;;;;;;;0.17;0.17;;;;;;;-9.14;70.74;100553.70;1769965;81;21985;-48
2021/01/16 09:34:12;;;;;;;0.03;0.03;;;;;;;-9.34;70.53;100563.58;1769635;80;21127;-48
2021/01/16 09:36:53;;;;;;;0.47;0.47;;;;;;;-9.50;69.96;100559.89;1749852;80;21226;-47
2021/01/16 09:39:30;;;;;;;0.10;0.10;;;;;;;-9.62;69.86;100557.43;1747888;81;21174;-48
2021/01/16 09:42:21;;;;;;;0.10;0.10;;;;;;;-9.75;68.74;100555.12;1746196;80;21151;-48
2021/01/16 09:44:52;;;;;;;0.20;0.20;;;;;;;-9.91;67.94;100556.70;1741108;81;21001;-48
2021/01/16 09:47:32;;;;;;;0.17;0.17;;;;;;;-10.06;67.86;100549.26;1741405;81;21076;-47
2021/01/16 09:50:19;;;;;;;0.10;0.10;;;;;;;-10.20;67.27;100549.70;1740748;82;21165;-47
2021/01/16 09:52:52;;;;;;;0.55;0.55;;;;;;;-10.28;67.37;100549.63;1732830;81;21165;-48
2021/01/16 09:55:32;;;;;;;0.33;0.33;;;;;;;-10.35;67.20;100559.09;1731980;81;21136;-47
2021/01/16 09:58:01;;;;;;;0.95;0.57;;;;;;;-10.48;66.33;100556.25;1735341;81;21130;-48
2021/01/16 10:00:32;;;;;;;0.25;0.25;;;;;;;-10.53;66.83;100555.84;1761547;81;21683;-47
2021/01/16 10:03:08;;;;;;;1.45;0.47;;;;;;;-10.55;66.51;100543.25;1752808;81;21178;-47
2021/01/16 10:05:38;;;;;;;0.20;0.20;;;;;;;-10.56;66.21;100541.57;1757751;80;21135;-47
2021/01/16 10:08:06;;;;;;;0.10;0.10;;;;;;;-10.58;66.45;100547.50;1760745;80;21141;-47
2021/01/16 10:10:47;;;;;;;0.10;0.10;;;;;;;-10.59;66.35;100554.23;1757615;80;21175;-48
2021/01/16 10:13:32;;;;;;;0.10;0.10;;;;;;;-10.58;66.42;100558.53;1757255;81;21175;-47
2021/01/16 10:16:04;;;;;;;0.10;0.10;;;;;;;-10.55;66.37;100560.91;1727895;81;21180;-47
2021/01/16 10:18:33;;;;;;;0.10;0.10;;;;;;;-10.48;66.42;100554.10;1742250;81;21134;-47
2021/01/16 10:21:07;;;;;;;0.10;0.10;;;;;;;-10.43;65.71;100555.34;1758238;81;21144;-47
2021/01/16 10:23:40;;;;;;;0.10;0.10;;;;;;;-10.39;65.23;100546.14;1741420;81;21447;-47
2021/01/16 10:29:10;;;;;;;0.40;0.25;;;;;;;-10.19;64.25;100551.36;1857202;76;38567;-46
2021/01/16 10:31:37;;;;;;;0.20;0.20;;;;;;;-10.16;63.75;100552.42;1787444;78;21153;-46
2021/01/16 10:34:08;;;;;;;1.60;0.55;;;;;;;-10.06;63.39;100551.91;1799093;78;21226;-46
2021/01/16 10:36:35;;;;;;;0.45;0.45;;;;;;;-10.06;62.72;100547.08;1821005;78;21137;-46
2021/01/16 10:39:13;;;;;;;0.80;0.80;;;;;;;-10.12;62.19;100553.78;1816518;77;21161;-46
2021/01/16 10:41:44;;;;;;;0.10;0.10;;;;;;;-10.18;62.02;100562.30;1805284;77;21103;-46
2021/01/16 10:44:13;;;;;;;0.20;0.20;;;;;;;-10.24;62.60;100557.06;1781400;78;21149;-49
2021/01/16 10:46:46;;;;;;;0.10;0.10;;;;;;;-10.26;62.44;100556.86;1801210;78;21134;-48
2021/01/16 10:49:21;;;;;;;1.10;1.00;;;;;;;-10.24;62.40;100562.35;1813084;77;21118;-48
2021/01/16 10:52:03;;;;;;;0.10;0.10;;;;;;;-10.28;62.39;100562.34;1817385;77;21089;-48
2021/01/16 10:54:31;;;;;;;0.10;0.10;;;;;;;-10.28;62.61;100560.19;1822302;77;21094;-49
2021/01/16 10:57:02;;;;;;;0.45;0.45;;;;;;;-10.22;62.06;100554.30;1822712;77;21123;-49
2021/01/16 10:59:33;;;;;;;0.10;0.10;;;;;;;-10.18;61.08;100550.40;1811245;78;21164;-49
2021/01/16 11:02:13;;;;;;;0.10;0.10;;;;;;;-10.16;61.05;100552.42;1814791;78;21109;-48
2021/01/16 11:04:43;;;;;;;0.47;0.47;;;;;;;-10.10;60.09;100554.97;1800205;77;21138;-48
2021/01/16 11:07:27;;;;;;;0.33;0.33;;;;;;;-10.14;59.29;100558.86;1783498;80;21107;-48
2021/01/16 11:10:08;;;;;;;0.88;0.88;;;;;;;-10.23;58.42;100561.89;1790830;78;21128;-48
2021/01/16 11:12:39;;;;;;;0.10;0.10;;;;;;;-10.30;58.44;100564.78;1793220;78;21147;-48
2021/01/16 11:15:30;;;;;;;0.37;0.37;;;;;;;-10.40;58.81;100564.30;1805904;77;21137;-49
2021/01/16 11:17:59;;;;;;;0.10;0.10;;;;;;;-10.45;59.24;100559.92;1765055;80;21430;-48
2021/01/16 11:20:30;;;;;;;0.33;0.33;;;;;;;-10.45;59.85;100567.85;1733411;80;21498;-48
2021/01/16 11:23:29;;;;;;;0.42;0.42;;;;;;;-10.36;59.65;100561.36;1727316;81;21166;-48
2021/01/16 11:25:59;;;;;;;0.10;0.10;;;;;;;-10.31;59.33;100574.52;1798447;79;21462;-48
2021/01/16 11:28:27;;;;;;;0.13;0.13;;;;;;;-10.32;59.42;100569.37;1814207;79;21158;-49
2021/01/16 11:31:06;;;;;;;0.10;0.10;;;;;;;-10.37;59.53;100567.64;1803796;79;21111;-48
2021/01/16 11:33:33;;;;;;;0.42;0.42;;;;;;;-10.43;59.64;100566.40;1751569;81;21137;-49
2021/01/16 11:36:14;;;;;;;0.10;0.10;;;;;;;-10.49;59.88;100574.38;1750430;81;21446;-48
2021/01/16 11:38:48;;;;;;;0.08;0.08;;;;;;;-10.52;60.10;100573.34;1748895;81;21143;-49
2021/01/16 11:41:53;;;;;;;0.10;0.10;;;;;;;-10.59;59.76;100579.33;1740923;81;21870;-49
2021/01/16 11:44:20;;;;;;;1.50;0.80;;;;;;;-10.77;59.11;100587.11;1727453;80;21145;-48
2021/01/16 11:46:53;;;;;;;0.90;0.53;;;;;;;-11.01;59.60;100579.08;1750366;80;21119;-48